Pilot L239 — OJ9461 — position and weather

sailwx.info

Track history (hours):
 
Tides and Currents Weather Stations Pressure Air Temp Water Temp Dewpoint Dewpoint Depression Visibility Wind Speed Wind Dir Waves Ship Positions

Pilot L239

Last reported at 2017-Jun-25 08:30 UTC. Time now 2017-Jun-25 08:55 UTC.
Position N 60°06' E 024°58'.

Length 15 m.

Type: Pilot. MMSI: 230035440.

Date/timePositionNaut miles runAvg speedWind from/ knotsBaromVisibWave heightAir tempDewpointWater temp
2017-Jun-25 08:30N 60°06' E 024°58'0 0.0
2017-Jun-25 08:00N 60°06' E 024°58'0 0.0
2017-Jun-25 07:30N 60°06' E 024°58'0 0.0
2017-Jun-25 07:00N 60°06' E 024°58'0 0.0
2017-Jun-25 06:30N 60°06' E 024°58'0 0.0
2017-Jun-25 06:00N 60°06' E 024°58'0 0.0
2017-Jun-25 05:30N 60°06' E 024°58'1 2.8
2017-Jun-25 05:00N 60°05' E 024°58'1 2.8
2017-Jun-25 04:30N 60°06' E 024°58'0 0.0
2017-Jun-25 04:00N 60°06' E 024°58'0 0.0
2017-Jun-25 03:30N 60°06' E 024°58'0 1.0
2017-Jun-25 03:00N 60°06' E 024°59'4 7.4
2017-Jun-25 02:30N 60°02' E 024°57'4 8.3
2017-Jun-25 02:00N 60°06' E 024°58'0 0.0
2017-Jun-25 01:30N 60°06' E 024°58'0 0.0
2017-Jun-25 01:00N 60°06' E 024°58'0 0.0
2017-Jun-25 00:30N 60°06' E 024°58'0 0.0
2017-Jun-25 00:00N 60°06' E 024°58'0 0.0
2017-Jun-24 23:30N 60°06' E 024°58'0 0.0
2017-Jun-24 23:00N 60°06' E 024°58'0 0.0
2017-Jun-24 22:30N 60°06' E 024°58'0 0.0
2017-Jun-24 22:00N 60°06' E 024°58'0 0.0
2017-Jun-24 21:30N 60°06' E 024°58'0 0.0
2017-Jun-24 21:00N 60°06' E 024°58'0 0.0
2017-Jun-24 20:30N 60°06' E 024°58'0 0.0
2017-Jun-24 20:00N 60°06' E 024°58'0 0.0
2017-Jun-24 19:30N 60°06' E 024°58'0 0.0
2017-Jun-24 19:00N 60°06' E 024°58'0 0.0
2017-Jun-24 18:30N 60°06' E 024°58'0 0.0
2017-Jun-24 18:00N 60°06' E 024°58'0 0.0
2017-Jun-24 17:30N 60°06' E 024°58'4 7.8
2017-Jun-24 17:01N 60°10' E 024°58'1 1.0
2017-Jun-24 16:31N 60°10' E 024°59'4 8.3
2017-Jun-24 16:00N 60°06' E 024°58'4 8.9
2017-Jun-24 15:31N 60°02' E 024°55'3 6.3
2017-Jun-24 15:01N 60°05' E 024°57'2 1.7
2017-Jun-24 14:01N 60°06' E 024°58'4 8.2
2017-Jun-24 13:30N 60°03' E 024°54'4 8.3
2017-Jun-24 13:01N 60°06' E 024°58'0 0.0
2017-Jun-24 12:30N 60°06' E 024°58'0 0.0
2017-Jun-24 12:00N 60°06' E 024°58'0 0.0
2017-Jun-24 11:31N 60°06' E 024°58'4 7.3
2017-Jun-24 11:01N 60°10' E 024°59'1 1.3
2017-Jun-24 10:31N 60°10' E 024°58'0 0.0
2017-Jun-24 10:01N 60°10' E 024°58'0 0.0
2017-Jun-24 09:31N 60°10' E 024°58'0 0.0
2017-Jun-24 09:01N 60°10' E 024°58'3 5.6
2017-Jun-24 08:31N 60°07' E 024°59'1 2.3
2017-Jun-24 08:00N 60°06' E 024°58'0 0.0
2017-Jun-24 07:30N 60°06' E 024°58'612.1
2017-Jun-24 07:01N 60°00' E 024°58'612.0
2017-Jun-24 06:30N 60°06' E 024°58'0 0.0
2017-Jun-24 06:01N 60°06' E 024°58'0 0.0
2017-Jun-24 05:31N 60°06' E 024°58'0 0.0
2017-Jun-24 05:00N 60°06' E 024°58'5 9.5
2017-Jun-24 04:31N 60°02' E 025°02'4 7.7
2017-Jun-24 04:01N 59°58' E 024°60'815.9
2017-Jun-24 03:30N 60°06' E 024°58'4 7.7
2017-Jun-24 03:01N 60°02' E 024°58'2 3.9
2017-Jun-24 02:31N 60°01' E 024°58'611.5
2017-Jun-24 02:00N 60°06' E 024°58'0 0.0
2017-Jun-24 01:30N 60°06' E 024°58'0 0.0
2017-Jun-24 01:00N 60°06' E 024°58'0 0.0
2017-Jun-24 00:30N 60°06' E 024°58'0 0.0
2017-Jun-24 00:00N 60°06' E 024°58'0 0.0
2017-Jun-23 23:30N 60°06' E 024°58'0 0.0
2017-Jun-23 23:00N 60°06' E 024°58'0 0.0
2017-Jun-23 22:30N 60°06' E 024°58'0 0.0
2017-Jun-23 22:00N 60°06' E 024°58'0 0.0
2017-Jun-23 21:30N 60°06' E 024°58'0 0.0
2017-Jun-23 21:00N 60°06' E 024°58'0 0.0
2017-Jun-23 20:30N 60°06' E 024°58'0 0.0
2017-Jun-23 20:00N 60°06' E 024°58'0 0.0
2017-Jun-23 19:30N 60°06' E 024°58'0 0.1
2017-Jun-23 19:01N 60°06' E 024°59'0 0.1
2017-Jun-23 18:31N 60°06' E 024°58'0 0.0
2017-Jun-23 18:00N 60°06' E 024°58'0 0.0
2017-Jun-23 17:30N 60°06' E 024°58'0 0.0
2017-Jun-23 17:01N 60°06' E 024°58'0 0.0
2017-Jun-23 16:31N 60°06' E 024°58'0 0.0
2017-Jun-23 16:00N 60°06' E 024°58'0 0.0
2017-Jun-23 15:31N 60°06' E 024°58'2 3.6
2017-Jun-23 15:00N 60°05' E 024°58'2 1.8
2017-Jun-23 14:00N 60°06' E 024°58'0 0.0
2017-Jun-23 13:30N 60°06' E 024°58'0 0.0
2017-Jun-23 13:00N 60°06' E 024°58'0 0.0
2017-Jun-23 12:30N 60°06' E 024°58'0 0.0
2017-Jun-23 12:00N 60°06' E 024°58'1 2.7
2017-Jun-23 11:31N 60°08' E 024°59'3 5.3
2017-Jun-23 11:00N 60°10' E 024°58'4 7.9
2017-Jun-23 10:31N 60°06' E 024°58'2 3.0
2017-Jun-23 10:01N 60°06' E 025°01'2 3.0
2017-Jun-23 09:30N 60°06' E 024°58'0 0.0
2017-Jun-23 09:00N 60°06' E 024°58'0 0.0
2017-Jun-23 08:30N 60°06' E 024°58'0 0.0
2017-Jun-23 08:00N 60°06' E 024°58'0 0.0
2017-Jun-23 07:30N 60°06' E 024°58'0 0.0
2017-Jun-23 07:00N 60°06' E 024°58'0 0.0
2017-Jun-23 06:30N 60°06' E 024°58'0 0.0
2017-Jun-23 06:00N 60°06' E 024°58'0 0.0
2017-Jun-23 05:30N 60°06' E 024°58'0 0.0
2017-Jun-23 05:00N 60°06' E 024°58'0 0.0
2017-Jun-23 04:30N 60°06' E 024°58'4 7.5
2017-Jun-23 04:01N 60°03' E 024°58'4 7.5
2017-Jun-23 03:30N 60°06' E 024°58'0 0.0
2017-Jun-23 03:00N 60°06' E 024°58'0 0.0
2017-Jun-23 02:30N 60°06' E 024°58'0 0.0
2017-Jun-23 02:00N 60°06' E 024°58'0 0.0
2017-Jun-23 01:30N 60°06' E 024°58'0 0.0
2017-Jun-23 01:00N 60°06' E 024°58'0 0.0
2017-Jun-23 00:30N 60°06' E 024°58'0 0.0
2017-Jun-23 00:00N 60°06' E 024°58'0 0.0
2017-Jun-22 23:30N 60°06' E 024°58'0 0.0
2017-Jun-22 23:00N 60°06' E 024°58'0 0.0
2017-Jun-22 22:30N 60°06' E 024°58'0 0.0
2017-Jun-22 22:00N 60°06' E 024°58'0 0.0
2017-Jun-22 21:30N 60°06' E 024°58'0 0.0
2017-Jun-22 21:00N 60°06' E 024°58'2 3.1
2017-Jun-22 20:31N 60°07' E 025°01'3 6.2
2017-Jun-22 20:01N 60°06' E 025°08'5 9.0
2017-Jun-22 19:30N 60°06' E 024°58'0 0.0
2017-Jun-22 19:00N 60°06' E 024°58'0 0.0
2017-Jun-22 18:30N 60°06' E 024°58'0 0.0
2017-Jun-22 18:00N 60°06' E 024°58'0 0.0
2017-Jun-22 17:30N 60°06' E 024°58'1 2.5
2017-Jun-22 17:00N 60°06' E 025°01'0 0.3
2017-Jun-22 16:31N 60°06' E 025°01'2 4.5
2017-Jun-22 16:01N 60°05' E 024°57'1 1.2
2017-Jun-22 15:31N 60°05' E 024°57'1 2.5
2017-Jun-22 15:01N 60°06' E 024°58'0 0.0
2017-Jun-22 14:31N 60°06' E 024°58'2 1.8
2017-Jun-22 13:31N 60°06' E 025°02'4 7.7
2017-Jun-22 13:00N 60°02' E 024°58'4 8.3
2017-Jun-22 12:31N 60°06' E 024°58'0 0.0
2017-Jun-22 12:00N 60°06' E 024°58'0 0.0
2017-Jun-22 11:30N 60°06' E 024°58'0 0.0
2017-Jun-22 11:00N 60°06' E 024°58'0 0.0
2017-Jun-22 10:30N 60°06' E 024°58'0 0.0
2017-Jun-22 10:00N 60°06' E 024°58'0 0.0
2017-Jun-22 09:30N 60°06' E 024°58'611.3
2017-Jun-22 09:00N 60°03' E 025°07'2 4.9
2017-Jun-22 08:31N 60°05' E 025°07'4 8.5
2017-Jun-22 08:00N 60°06' E 024°58'0 0.0
2017-Jun-22 07:30N 60°06' E 024°58'0 0.0
2017-Jun-22 07:00N 60°06' E 024°58'0 0.0
2017-Jun-22 06:30N 60°06' E 024°58'3 5.7
2017-Jun-22 06:01N 60°03' E 024°58'3 6.9
2017-Jun-22 05:30N 60°03' E 025°05'5 9.9
2017-Jun-22 05:00N 60°06' E 024°58'0 0.0
2017-Jun-22 04:30N 60°06' E 024°58'4 7.2
2017-Jun-22 04:00N 60°10' E 024°59'4 7.1
2017-Jun-22 03:30N 60°06' E 024°58'0 0.0
2017-Jun-22 03:00N 60°06' E 024°58'4 8.3
2017-Jun-22 02:31N 60°02' E 024°58'510.5
2017-Jun-22 02:01N 60°03' E 025°08'611.5
2017-Jun-22 01:30N 60°06' E 024°58'0 0.0
2017-Jun-22 01:00N 60°06' E 024°58'0 0.0
2017-Jun-22 00:30N 60°06' E 024°58'0 0.0
2017-Jun-22 00:00N 60°06' E 024°58'0 0.0
2017-Jun-21 23:30N 60°06' E 024°58'0 0.0
2017-Jun-21 23:00N 60°06' E 024°58'0 0.0
2017-Jun-21 22:30N 60°06' E 024°58'0 0.0
2017-Jun-21 22:00N 60°06' E 024°58'0 0.0
2017-Jun-21 21:30N 60°06' E 024°58'0 0.0
2017-Jun-21 21:01N 60°06' E 024°58'5 9.4
2017-Jun-21 20:30N 60°04' E 025°06'5 9.4
2017-Jun-21 20:00N 60°06' E 024°58'0 0.0
2017-Jun-21 19:31N 60°06' E 024°58'0 0.0
2017-Jun-21 19:00N 60°06' E 024°58'0 0.0
2017-Jun-21 18:30N 60°06' E 024°58'611.1
2017-Jun-21 18:00N 60°06' E 025°10'611.1
2017-Jun-21 17:30N 60°06' E 024°58'3 6.9
2017-Jun-21 17:01N 60°03' E 024°56'3 6.9
2017-Jun-21 16:30N 60°06' E 024°58'0 0.0
2017-Jun-21 16:00N 60°06' E 024°58'0 0.0
2017-Jun-21 15:30N 60°06' E 024°58'0 0.0
2017-Jun-21 15:01N 60°06' E 024°58'3 5.3
2017-Jun-21 14:30N 60°05' E 024°54'3 2.7
2017-Jun-21 13:31N 60°06' E 024°58'0 0.3
2017-Jun-21 13:01N 60°06' E 024°58'3 6.8
2017-Jun-21 12:30N 60°07' E 025°05'2 4.2
2017-Jun-21 12:00N 60°07' E 025°01'1 2.5
2017-Jun-21 11:30N 60°07' E 024°59'3 5.8
2017-Jun-21 11:01N 60°09' E 024°60'3 6.3
2017-Jun-21 10:30N 60°06' E 024°58'0 0.0
2017-Jun-21 10:00N 60°06' E 024°58'5 9.1
2017-Jun-21 09:31N 60°04' E 025°07'5 9.0
2017-Jun-21 09:00N 60°06' E 024°58'4 7.8
2017-Jun-21 08:30N 60°10' E 024°58'4 7.7
2017-Jun-21 08:00N 60°06' E 024°58'0 0.1
2017-Jun-21 07:30N 60°06' E 024°58'4 8.8
2017-Jun-21 07:01N 60°02' E 024°57'4 8.7
2017-Jun-21 06:30N 60°06' E 024°58'0 0.0
2017-Jun-21 06:00N 60°06' E 024°58'0 0.0
2017-Jun-21 05:30N 60°06' E 024°58'0 0.0
2017-Jun-21 05:00N 60°06' E 024°58'3 6.3
2017-Jun-21 04:30N 60°03' E 024°58'2 3.3
2017-Jun-21 04:01N 60°05' E 024°58'2 3.0
2017-Jun-21 03:30N 60°06' E 024°58'0 0.5
2017-Jun-21 03:01N 60°06' E 024°59'5 9.7
2017-Jun-21 02:30N 60°01' E 024°58'510.2
2017-Jun-21 02:00N 60°06' E 024°58'3 6.9
2017-Jun-21 01:31N 60°05' E 025°05'3 6.8
2017-Jun-21 01:01N 60°06' E 024°58'0 0.0
2017-Jun-21 00:30N 60°06' E 024°58'0 0.0
2017-Jun-21 00:01N 60°06' E 024°58'0 0.0
2017-Jun-20 23:30N 60°06' E 024°58'0 0.0
2017-Jun-20 23:00N 60°06' E 024°58'0 0.0
2017-Jun-20 22:31N 60°06' E 024°58'0 0.0
2017-Jun-20 22:00N 60°06' E 024°58'0 0.0
2017-Jun-20 21:30N 60°06' E 024°58'0 0.0
2017-Jun-20 21:00N 60°06' E 024°58'0 0.0
2017-Jun-20 20:30N 60°06' E 024°58'0 0.0
2017-Jun-20 20:00N 60°06' E 024°58'0 0.0
2017-Jun-20 19:30N 60°06' E 024°58'0 0.0
2017-Jun-20 19:00N 60°06' E 024°58'0 0.0
2017-Jun-20 18:30N 60°06' E 024°58'0 0.0
2017-Jun-20 18:00N 60°06' E 024°58'0 0.0
2017-Jun-20 17:30N 60°06' E 024°58'0 0.0
2017-Jun-20 17:00N 60°06' E 024°58'0 0.0
2017-Jun-20 16:30N 60°06' E 024°58'0 0.2
2017-Jun-20 16:01N 60°06' E 024°59'4 7.9
2017-Jun-20 15:31N 60°03' E 024°54'4 7.7
2017-Jun-20 15:00N 60°06' E 024°58'0 0.0
2017-Jun-20 14:00N 60°06' E 024°58'0 0.0
2017-Jun-20 13:30N 60°06' E 024°58'0 0.0
2017-Jun-20 13:00N 60°06' E 024°58'0 0.0
2017-Jun-20 12:30N 60°06' E 024°58'0 0.0
2017-Jun-20 12:00N 60°06' E 024°58'0 0.0
2017-Jun-20 11:30N 60°06' E 024°58'0 0.0
2017-Jun-20 11:00N 60°06' E 024°58'2 3.3
2017-Jun-20 10:30N 60°07' E 025°02'2 3.4
2017-Jun-20 10:01N 60°07' E 025°05'3 6.6
2017-Jun-20 09:30N 60°06' E 024°58'0 0.0
2017-Jun-20 09:00N 60°06' E 024°58'0 0.0
2017-Jun-20 08:30N 60°06' E 024°58'0 0.0
2017-Jun-20 08:00N 60°06' E 024°58'0 0.0
2017-Jun-20 07:30N 60°06' E 024°58'0 0.0
2017-Jun-20 07:00N 60°06' E 024°58'0 0.0
2017-Jun-20 06:30N 60°06' E 024°58'4 7.2
2017-Jun-20 06:00N 60°10' E 024°59'4 7.2
2017-Jun-20 05:30N 60°06' E 024°58'0 0.0
2017-Jun-20 05:00N 60°06' E 024°58'0 0.0
2017-Jun-20 04:30N 60°06' E 024°58'0 0.0
2017-Jun-20 04:00N 60°06' E 024°58'0 0.0
2017-Jun-20 03:31N 60°06' E 024°58'0 0.0
2017-Jun-20 03:00N 60°06' E 024°58'0 0.0
2017-Jun-20 02:30N 60°06' E 024°58'0 0.0
2017-Jun-20 02:00N 60°06' E 024°58'0 0.0
2017-Jun-20 01:31N 60°06' E 024°58'0 0.0
2017-Jun-20 01:00N 60°06' E 024°58'0 0.0
2017-Jun-20 00:30N 60°06' E 024°58'0 0.0
2017-Jun-20 00:00N 60°06' E 024°58'0 0.0
2017-Jun-19 23:30N 60°06' E 024°58'0 0.0
2017-Jun-19 23:00N 60°06' E 024°58'0 0.0
2017-Jun-19 22:30N 60°06' E 024°58'0 0.0
2017-Jun-19 22:00N 60°06' E 024°58'0 0.0
2017-Jun-19 21:30N 60°06' E 024°58'4 8.7
2017-Jun-19 21:01N 60°03' E 024°54'4 8.7
2017-Jun-19 20:31N 60°06' E 024°58'0 0.0
2017-Jun-19 20:00N 60°06' E 024°58'0 0.0
2017-Jun-19 19:30N 60°06' E 024°58'0 0.0
2017-Jun-19 19:00N 60°06' E 024°58'4 7.6
2017-Jun-19 18:30N 60°06' E 025°06'4 7.5
2017-Jun-19 18:01N 60°06' E 024°59'0 0.1
2017-Jun-19 17:30N 60°06' E 024°58'2 4.1
2017-Jun-19 17:00N 60°05' E 025°02'2 3.7
2017-Jun-19 16:30N 60°06' E 024°59'1 1.9
2017-Jun-19 16:01N 60°05' E 024°58'0 0.8
2017-Jun-19 15:30N 60°06' E 024°58'1 1.3
2017-Jun-19 15:00N 60°06' E 024°58'1 2.4
2017-Jun-19 14:30N 60°05' E 024°58'1 1.2
2017-Jun-19 13:30N 60°06' E 024°58'0 0.1
2017-Jun-19 13:01N 60°06' E 024°58'0 0.0
2017-Jun-19 12:30N 60°06' E 024°58'0 0.0
2017-Jun-19 12:00N 60°06' E 024°58'0 0.0
2017-Jun-19 11:30N 60°06' E 024°58'0 0.0
2017-Jun-19 11:00N 60°06' E 024°58'0 0.0
2017-Jun-19 10:31N 60°06' E 024°58'0 0.0
2017-Jun-19 10:00N 60°06' E 024°58'0 0.0
2017-Jun-19 09:30N 60°06' E 024°58'0 0.0
2017-Jun-19 09:00N 60°06' E 024°58'0 0.0
2017-Jun-19 08:30N 60°06' E 024°58'4 7.9
2017-Jun-19 08:01N 60°10' E 024°58'0 0.2
2017-Jun-19 07:30N 60°10' E 024°58'3 6.0
2017-Jun-19 07:00N 60°07' E 024°59'4 8.1
2017-Jun-19 06:31N 60°03' E 024°57'3 6.1
2017-Jun-19 06:00N 60°06' E 024°58'0 0.0
2017-Jun-19 05:31N 60°06' E 024°58'1 1.6
2017-Jun-19 05:01N 60°05' E 024°59'1 1.6
2017-Jun-19 04:30N 60°06' E 024°58'612.2
2017-Jun-19 04:00N 60°09' E 025°10'2 3.3
2017-Jun-19 03:30N 60°10' E 025°12'918.1
2017-Jun-19 03:01N 60°04' E 024°58'714.2
2017-Jun-19 02:31N 59°57' E 025°01'816.8
2017-Jun-19 02:01N 60°06' E 025°01'1 2.8
2017-Jun-19 01:31N 60°06' E 024°58'0 0.0
2017-Jun-19 01:00N 60°06' E 024°58'0 0.0
2017-Jun-19 00:31N 60°06' E 024°58'0 0.0
2017-Jun-19 00:01N 60°06' E 024°58'0 0.0
2017-Jun-18 23:30N 60°06' E 024°58'0 0.0
2017-Jun-18 23:01N 60°06' E 024°58'0 0.0
2017-Jun-18 22:31N 60°06' E 024°58'0 0.0
2017-Jun-18 22:00N 60°06' E 024°58'0 0.0
2017-Jun-18 21:31N 60°06' E 024°58'0 0.0
2017-Jun-18 21:00N 60°06' E 024°58'0 0.0
2017-Jun-18 20:31N 60°06' E 024°58'0 0.0
2017-Jun-18 20:01N 60°06' E 024°58'0 0.0
2017-Jun-18 19:31N 60°06' E 024°58'0 0.0
2017-Jun-18 19:01N 60°06' E 024°58'0 0.0
2017-Jun-18 18:30N 60°06' E 024°58'1 1.3
2017-Jun-18 18:00N 60°06' E 024°58'2 3.8
2017-Jun-18 17:31N 60°04' E 024°57'612.7
2017-Jun-18 17:01N 60°10' E 024°59'4 7.3
2017-Jun-18 16:31N 60°07' E 024°58'4 7.2
2017-Jun-18 16:00N 60°10' E 024°58'4 7.8
2017-Jun-18 15:31N 60°06' E 024°58'5 9.8
2017-Jun-18 15:01N 60°02' E 024°55'5 4.9
2017-Jun-18 14:00N 60°06' E 024°58'0 0.0
2017-Jun-18 13:30N 60°06' E 024°58'0 0.0
2017-Jun-18 13:00N 60°06' E 024°58'0 0.0
2017-Jun-18 12:30N 60°06' E 024°58'0 0.0
2017-Jun-18 12:00N 60°06' E 024°58'0 0.0
2017-Jun-18 11:30N 60°06' E 024°58'0 0.0
2017-Jun-18 11:01N 60°06' E 024°58'0 0.0
2017-Jun-18 10:30N 60°06' E 024°58'0 0.0
2017-Jun-18 10:00N 60°06' E 024°58'510.9
2017-Jun-18 09:31N 60°01' E 024°57'510.8
2017-Jun-18 09:00N 60°06' E 024°58'0 0.0
2017-Jun-18 08:30N 60°06' E 024°58'0 0.0
2017-Jun-18 08:00N 60°06' E 024°58'0 0.0
2017-Jun-18 07:30N 60°06' E 024°58'4 8.5
2017-Jun-18 07:01N 60°06' E 025°07'4 8.5
2017-Jun-18 06:31N 60°06' E 024°58'1 1.6
2017-Jun-18 06:00N 60°06' E 024°59'1 1.6
2017-Jun-18 05:30N 60°05' E 024°58'2 3.2
2017-Jun-18 05:00N 60°06' E 024°58'0 0.0
2017-Jun-18 04:30N 60°06' E 024°58'4 9.0
2017-Jun-18 04:01N 60°02' E 024°57'4 7.6
2017-Jun-18 03:30N 60°06' E 024°59'0 0.8
2017-Jun-18 03:00N 60°05' E 024°59'1 2.2
2017-Jun-18 02:30N 60°06' E 024°58'0 0.0
2017-Jun-18 02:00N 60°06' E 024°58'0 0.0
2017-Jun-18 01:30N 60°06' E 024°58'0 0.0
2017-Jun-18 01:00N 60°06' E 024°58'0 0.0
2017-Jun-18 00:30N 60°06' E 024°58'0 0.0
2017-Jun-18 00:00N 60°06' E 024°58'0 0.0
2017-Jun-17 23:30N 60°06' E 024°58'0 0.0
2017-Jun-17 23:00N 60°06' E 024°58'0 0.0
2017-Jun-17 22:30N 60°06' E 024°58'0 0.0
2017-Jun-17 22:00N 60°06' E 024°58'0 0.0
2017-Jun-17 21:31N 60°06' E 024°58'0 0.1
2017-Jun-17 21:01N 60°06' E 024°58'611.5
2017-Jun-17 20:31N 60°06' E 025°10'611.4
2017-Jun-17 20:00N 60°06' E 024°58'0 0.0
2017-Jun-17 19:30N 60°06' E 024°58'0 0.0
2017-Jun-17 19:01N 60°06' E 024°58'0 0.0
2017-Jun-17 18:31N 60°06' E 024°58'0 0.0
2017-Jun-17 18:01N 60°06' E 024°58'0 0.0
2017-Jun-17 17:31N 60°06' E 024°58'0 0.0
2017-Jun-17 17:01N 60°06' E 024°58'0 0.0
2017-Jun-17 16:31N 60°06' E 024°58'3 6.8
2017-Jun-17 16:00N 60°03' E 024°57'3 5.1
2017-Jun-17 15:30N 60°05' E 024°58'1 1.8
2017-Jun-17 15:00N 60°06' E 024°58'0 0.0
2017-Jun-17 14:30N 60°06' E 024°58'0 0.0
2017-Jun-17 13:30N 60°06' E 024°58'0 0.0
2017-Jun-17 13:00N 60°06' E 024°58'0 0.0
2017-Jun-17 12:30N 60°06' E 024°58'0 0.0
2017-Jun-17 12:00N 60°06' E 024°58'0 0.0
2017-Jun-17 11:30N 60°06' E 024°58'0 0.0
2017-Jun-17 11:00N 60°06' E 024°58'0 0.0
2017-Jun-17 10:30N 60°06' E 024°58'0 0.0
2017-Jun-17 10:00N 60°06' E 024°58'0 0.0
2017-Jun-17 09:30N 60°06' E 024°58'0 0.0
2017-Jun-17 09:00N 60°06' E 024°58'4 7.8
2017-Jun-17 08:30N 60°10' E 024°58'0 0.0
2017-Jun-17 08:00N 60°10' E 024°58'3 5.0
2017-Jun-17 07:31N 60°08' E 024°59'611.9
2017-Jun-17 07:01N 60°02' E 024°58'4 8.9
2017-Jun-17 06:31N 60°06' E 024°58'0 0.0
2017-Jun-17 06:01N 60°06' E 024°58'0 0.0
2017-Jun-17 05:31N 60°06' E 024°58'3 6.7
2017-Jun-17 05:00N 60°09' E 024°55'1 2.2
2017-Jun-17 04:31N 60°09' E 024°57'3 5.1
2017-Jun-17 04:01N 60°06' E 024°59'5 9.1
2017-Jun-17 03:31N 60°02' E 024°58'5 9.4
2017-Jun-17 03:01N 60°06' E 024°58'0 0.0
2017-Jun-17 02:30N 60°06' E 024°58'0 0.0
2017-Jun-17 02:00N 60°06' E 024°58'0 0.0
2017-Jun-17 01:31N 60°06' E 024°58'0 0.0
2017-Jun-17 01:00N 60°06' E 024°58'0 0.0
2017-Jun-17 00:30N 60°06' E 024°58'0 0.0
2017-Jun-17 00:00N 60°06' E 024°58'611.8
2017-Jun-16 23:31N 60°04' E 025°10'611.8
2017-Jun-16 23:00N 60°06' E 024°58'0 0.0
2017-Jun-16 22:30N 60°06' E 024°58'0 0.0
2017-Jun-16 22:00N 60°06' E 024°58'0 0.0
2017-Jun-16 21:30N 60°06' E 024°58'0 0.0
2017-Jun-16 21:00N 60°06' E 024°58'0 0.0
2017-Jun-16 20:30N 60°06' E 024°58'0 0.0
2017-Jun-16 20:00N 60°06' E 024°58'0 0.0
2017-Jun-16 19:30N 60°06' E 024°58'0 0.0
2017-Jun-16 19:00N 60°06' E 024°58'0 0.0
2017-Jun-16 18:30N 60°06' E 024°58'0 0.0
2017-Jun-16 18:00N 60°06' E 024°58'0 0.0
2017-Jun-16 17:30N 60°06' E 024°58'0 0.0
2017-Jun-16 17:01N 60°06' E 024°58'612.6
2017-Jun-16 16:30N 60°05' E 025°11'1 1.2
2017-Jun-16 16:00N 60°05' E 025°10'815.3
2017-Jun-16 15:31N 60°13' E 025°12'816.6
2017-Jun-16 15:00N 60°07' E 025°01'5 9.5
2017-Jun-16 14:31N 60°03' E 024°55'4 3.9
2017-Jun-16 13:30N 60°06' E 024°58'0 0.0
2017-Jun-16 13:01N 60°06' E 024°58'611.9
2017-Jun-16 12:31N 60°06' E 025°10'2 3.9
2017-Jun-16 12:00N 60°06' E 025°07'4 8.1
2017-Jun-16 11:31N 60°06' E 024°58'0 0.1
2017-Jun-16 11:01N 60°06' E 024°58'0 0.0
2017-Jun-16 10:31N 60°06' E 024°58'0 0.0
2017-Jun-16 10:00N 60°06' E 024°58'0 0.0
2017-Jun-16 09:31N 60°06' E 024°58'0 0.0
2017-Jun-16 09:00N 60°06' E 024°58'0 0.0
2017-Jun-16 08:31N 60°06' E 024°58'0 0.0
2017-Jun-16 08:00N 60°06' E 024°58'0 0.0
2017-Jun-16 07:31N 60°06' E 024°58'0 0.0
2017-Jun-16 07:01N 60°06' E 024°58'0 0.0
2017-Jun-16 06:31N 60°06' E 024°58'0 0.0
2017-Jun-16 06:01N 60°06' E 024°58'0 0.0
2017-Jun-16 05:30N 60°06' E 024°58'0 0.0
2017-Jun-16 05:01N 60°06' E 024°58'0 0.0
2017-Jun-16 04:30N 60°06' E 024°58'4 7.8
2017-Jun-16 04:01N 60°10' E 024°59'1 1.2
2017-Jun-16 03:30N 60°10' E 024°59'1019.6
2017-Jun-16 03:00N 59°60' E 024°58'612.8
2017-Jun-16 02:30N 60°06' E 024°58'0 0.0
2017-Jun-16 02:01N 60°06' E 024°58'5 9.9
2017-Jun-16 01:31N 60°06' E 025°08'5 9.9
2017-Jun-16 01:00N 60°06' E 024°58'0 0.0
2017-Jun-16 00:30N 60°06' E 024°58'0 0.0
2017-Jun-16 00:00N 60°06' E 024°58'0 0.0
2017-Jun-15 23:30N 60°06' E 024°58'0 0.0
2017-Jun-15 23:00N 60°06' E 024°58'0 0.0
2017-Jun-15 22:30N 60°06' E 024°58'0 0.0
2017-Jun-15 22:00N 60°06' E 024°58'0 0.0
2017-Jun-15 21:30N 60°06' E 024°58'0 0.0
2017-Jun-15 21:00N 60°06' E 024°58'0 0.0
2017-Jun-15 20:30N 60°06' E 024°58'0 0.0
2017-Jun-15 20:00N 60°06' E 024°58'0 0.0
2017-Jun-15 19:30N 60°06' E 024°58'0 0.0
2017-Jun-15 19:00N 60°06' E 024°58'0 0.0
2017-Jun-15 18:30N 60°06' E 024°58'0 0.0
2017-Jun-15 18:00N 60°06' E 024°58'0 0.0
2017-Jun-15 17:30N 60°06' E 024°58'2 4.5
2017-Jun-15 17:00N 60°08' E 024°57'2 4.4
2017-Jun-15 16:30N 60°06' E 024°58'0 0.0
2017-Jun-15 16:01N 60°06' E 024°58'0 0.1
2017-Jun-15 15:31N 60°06' E 024°59'0 0.1
2017-Jun-15 15:00N 60°06' E 024°58'0 0.0
2017-Jun-15 14:30N 60°06' E 024°58'0 0.0
2017-Jun-15 13:30N 60°06' E 024°58'0 0.0
2017-Jun-15 13:00N 60°06' E 024°58'0 0.0
2017-Jun-15 12:30N 60°06' E 024°58'0 0.0
2017-Jun-15 12:00N 60°06' E 024°58'0 0.0
2017-Jun-15 11:30N 60°06' E 024°58'0 0.0
2017-Jun-15 11:01N 60°06' E 024°58'0 0.0
2017-Jun-15 10:30N 60°06' E 024°58'0 0.0
2017-Jun-15 10:00N 60°06' E 024°58'611.3
2017-Jun-15 09:29N 60°01' E 025°05'  
Track history (hours):
 
Tides and Currents Weather Stations Pressure Air Temp Water Temp Dewpoint Dewpoint Depression Visibility Wind Speed Wind Dir Waves Ship Positions

Pilot L239

Last reported at 2017-Jun-25 08:30 UTC. Time now 2017-Jun-25 08:55 UTC.
Position N 60°06' E 024°58'.

Length 15 m.

Type: Pilot. MMSI: 230035440.

Date/timePositionNaut miles runAvg speedWind from/ knotsBaromVisibWave heightAir tempDewpointWater temp
2017-Jun-25 08:30N 60°06' E 024°58'0 0.0
2017-Jun-25 08:00N 60°06' E 024°58'0 0.0
2017-Jun-25 07:30N 60°06' E 024°58'0 0.0
2017-Jun-25 07:00N 60°06' E 024°58'0 0.0
2017-Jun-25 06:30N 60°06' E 024°58'0 0.0
2017-Jun-25 06:00N 60°06' E 024°58'0 0.0
2017-Jun-25 05:30N 60°06' E 024°58'1 2.8
2017-Jun-25 05:00N 60°05' E 024°58'1 2.8
2017-Jun-25 04:30N 60°06' E 024°58'0 0.0
2017-Jun-25 04:00N 60°06' E 024°58'0 0.0
2017-Jun-25 03:30N 60°06' E 024°58'0 1.0
2017-Jun-25 03:00N 60°06' E 024°59'4 7.4
2017-Jun-25 02:30N 60°02' E 024°57'4 8.3
2017-Jun-25 02:00N 60°06' E 024°58'0 0.0
2017-Jun-25 01:30N 60°06' E 024°58'0 0.0
2017-Jun-25 01:00N 60°06' E 024°58'0 0.0
2017-Jun-25 00:30N 60°06' E 024°58'0 0.0
2017-Jun-25 00:00N 60°06' E 024°58'0 0.0
2017-Jun-24 23:30N 60°06' E 024°58'0 0.0
2017-Jun-24 23:00N 60°06' E 024°58'0 0.0
2017-Jun-24 22:30N 60°06' E 024°58'0 0.0
2017-Jun-24 22:00N 60°06' E 024°58'0 0.0
2017-Jun-24 21:30N 60°06' E 024°58'0 0.0
2017-Jun-24 21:00N 60°06' E 024°58'0 0.0
2017-Jun-24 20:30N 60°06' E 024°58'0 0.0
2017-Jun-24 20:00N 60°06' E 024°58'0 0.0
2017-Jun-24 19:30N 60°06' E 024°58'0 0.0
2017-Jun-24 19:00N 60°06' E 024°58'0 0.0
2017-Jun-24 18:30N 60°06' E 024°58'0 0.0
2017-Jun-24 18:00N 60°06' E 024°58'0 0.0
2017-Jun-24 17:30N 60°06' E 024°58'4 7.8
2017-Jun-24 17:01N 60°10' E 024°58'1 1.0
2017-Jun-24 16:31N 60°10' E 024°59'4 8.3
2017-Jun-24 16:00N 60°06' E 024°58'4 8.9
2017-Jun-24 15:31N 60°02' E 024°55'3 6.3
2017-Jun-24 15:01N 60°05' E 024°57'2 1.7
2017-Jun-24 14:01N 60°06' E 024°58'4 8.2
2017-Jun-24 13:30N 60°03' E 024°54'4 8.3
2017-Jun-24 13:01N 60°06' E 024°58'0 0.0
2017-Jun-24 12:30N 60°06' E 024°58'0 0.0
2017-Jun-24 12:00N 60°06' E 024°58'0 0.0
2017-Jun-24 11:31N 60°06' E 024°58'4 7.3
2017-Jun-24 11:01N 60°10' E 024°59'1 1.3
2017-Jun-24 10:31N 60°10' E 024°58'0 0.0
2017-Jun-24 10:01N 60°10' E 024°58'0 0.0
2017-Jun-24 09:31N 60°10' E 024°58'0 0.0
2017-Jun-24 09:01N 60°10' E 024°58'3 5.6
2017-Jun-24 08:31N 60°07' E 024°59'1 2.3
2017-Jun-24 08:00N 60°06' E 024°58'0 0.0
2017-Jun-24 07:30N 60°06' E 024°58'612.1
2017-Jun-24 07:01N 60°00' E 024°58'612.0
2017-Jun-24 06:30N 60°06' E 024°58'0 0.0
2017-Jun-24 06:01N 60°06' E 024°58'0 0.0
2017-Jun-24 05:31N 60°06' E 024°58'0 0.0
2017-Jun-24 05:00N 60°06' E 024°58'5 9.5
2017-Jun-24 04:31N 60°02' E 025°02'4 7.7
2017-Jun-24 04:01N 59°58' E 024°60'815.9
2017-Jun-24 03:30N 60°06' E 024°58'4 7.7
2017-Jun-24 03:01N 60°02' E 024°58'2 3.9
2017-Jun-24 02:31N 60°01' E 024°58'611.5
2017-Jun-24 02:00N 60°06' E 024°58'0 0.0
2017-Jun-24 01:30N 60°06' E 024°58'0 0.0
2017-Jun-24 01:00N 60°06' E 024°58'0 0.0
2017-Jun-24 00:30N 60°06' E 024°58'0 0.0
2017-Jun-24 00:00N 60°06' E 024°58'0 0.0
2017-Jun-23 23:30N 60°06' E 024°58'0 0.0
2017-Jun-23 23:00N 60°06' E 024°58'0 0.0
2017-Jun-23 22:30N 60°06' E 024°58'0 0.0
2017-Jun-23 22:00N 60°06' E 024°58'0 0.0
2017-Jun-23 21:30N 60°06' E 024°58'0 0.0
2017-Jun-23 21:00N 60°06' E 024°58'0 0.0
2017-Jun-23 20:30N 60°06' E 024°58'0 0.0
2017-Jun-23 20:00N 60°06' E 024°58'0 0.0
2017-Jun-23 19:30N 60°06' E 024°58'0 0.1
2017-Jun-23 19:01N 60°06' E 024°59'0 0.1
2017-Jun-23 18:31N 60°06' E 024°58'0 0.0
2017-Jun-23 18:00N 60°06' E 024°58'0 0.0
2017-Jun-23 17:30N 60°06' E 024°58'0 0.0
2017-Jun-23 17:01N 60°06' E 024°58'0 0.0
2017-Jun-23 16:31N 60°06' E 024°58'0 0.0
2017-Jun-23 16:00N 60°06' E 024°58'0 0.0
2017-Jun-23 15:31N 60°06' E 024°58'2 3.6
2017-Jun-23 15:00N 60°05' E 024°58'2 1.8
2017-Jun-23 14:00N 60°06' E 024°58'0 0.0
2017-Jun-23 13:30N 60°06' E 024°58'0 0.0
2017-Jun-23 13:00N 60°06' E 024°58'0 0.0
2017-Jun-23 12:30N 60°06' E 024°58'0 0.0
2017-Jun-23 12:00N 60°06' E 024°58'1 2.7
2017-Jun-23 11:31N 60°08' E 024°59'3 5.3
2017-Jun-23 11:00N 60°10' E 024°58'4 7.9
2017-Jun-23 10:31N 60°06' E 024°58'2 3.0
2017-Jun-23 10:01N 60°06' E 025°01'2 3.0
2017-Jun-23 09:30N 60°06' E 024°58'0 0.0
2017-Jun-23 09:00N 60°06' E 024°58'0 0.0
2017-Jun-23 08:30N 60°06' E 024°58'0 0.0
2017-Jun-23 08:00N 60°06' E 024°58'0 0.0
2017-Jun-23 07:30N 60°06' E 024°58'0 0.0
2017-Jun-23 07:00N 60°06' E 024°58'0 0.0
2017-Jun-23 06:30N 60°06' E 024°58'0 0.0
2017-Jun-23 06:00N 60°06' E 024°58'0 0.0
2017-Jun-23 05:30N 60°06' E 024°58'0 0.0
2017-Jun-23 05:00N 60°06' E 024°58'0 0.0
2017-Jun-23 04:30N 60°06' E 024°58'4 7.5
2017-Jun-23 04:01N 60°03' E 024°58'4 7.5
2017-Jun-23 03:30N 60°06' E 024°58'0 0.0
2017-Jun-23 03:00N 60°06' E 024°58'0 0.0
2017-Jun-23 02:30N 60°06' E 024°58'0 0.0
2017-Jun-23 02:00N 60°06' E 024°58'0 0.0
2017-Jun-23 01:30N 60°06' E 024°58'0 0.0
2017-Jun-23 01:00N 60°06' E 024°58'0 0.0
2017-Jun-23 00:30N 60°06' E 024°58'0 0.0
2017-Jun-23 00:00N 60°06' E 024°58'0 0.0
2017-Jun-22 23:30N 60°06' E 024°58'0 0.0
2017-Jun-22 23:00N 60°06' E 024°58'0 0.0
2017-Jun-22 22:30N 60°06' E 024°58'0 0.0
2017-Jun-22 22:00N 60°06' E 024°58'0 0.0
2017-Jun-22 21:30N 60°06' E 024°58'0 0.0
2017-Jun-22 21:00N 60°06' E 024°58'2 3.1
2017-Jun-22 20:31N 60°07' E 025°01'3 6.2
2017-Jun-22 20:01N 60°06' E 025°08'5 9.0
2017-Jun-22 19:30N 60°06' E 024°58'0 0.0
2017-Jun-22 19:00N 60°06' E 024°58'0 0.0
2017-Jun-22 18:30N 60°06' E 024°58'0 0.0
2017-Jun-22 18:00N 60°06' E 024°58'0 0.0
2017-Jun-22 17:30N 60°06' E 024°58'1 2.5
2017-Jun-22 17:00N 60°06' E 025°01'0 0.3
2017-Jun-22 16:31N 60°06' E 025°01'2 4.5
2017-Jun-22 16:01N 60°05' E 024°57'1 1.2
2017-Jun-22 15:31N 60°05' E 024°57'1 2.5
2017-Jun-22 15:01N 60°06' E 024°58'0 0.0
2017-Jun-22 14:31N 60°06' E 024°58'2 1.8
2017-Jun-22 13:31N 60°06' E 025°02'4 7.7
2017-Jun-22 13:00N 60°02' E 024°58'4 8.3
2017-Jun-22 12:31N 60°06' E 024°58'0 0.0
2017-Jun-22 12:00N 60°06' E 024°58'0 0.0
2017-Jun-22 11:30N 60°06' E 024°58'0 0.0
2017-Jun-22 11:00N 60°06' E 024°58'0 0.0
2017-Jun-22 10:30N 60°06' E 024°58'0 0.0
2017-Jun-22 10:00N 60°06' E 024°58'0 0.0
2017-Jun-22 09:30N 60°06' E 024°58'611.3
2017-Jun-22 09:00N 60°03' E 025°07'2 4.9
2017-Jun-22 08:31N 60°05' E 025°07'4 8.5
2017-Jun-22 08:00N 60°06' E 024°58'0 0.0
2017-Jun-22 07:30N 60°06' E 024°58'0 0.0
2017-Jun-22 07:00N 60°06' E 024°58'0 0.0
2017-Jun-22 06:30N 60°06' E 024°58'3 5.7
2017-Jun-22 06:01N 60°03' E 024°58'3 6.9
2017-Jun-22 05:30N 60°03' E 025°05'5 9.9
2017-Jun-22 05:00N 60°06' E 024°58'0 0.0
2017-Jun-22 04:30N 60°06' E 024°58'4 7.2
2017-Jun-22 04:00N 60°10' E 024°59'4 7.1
2017-Jun-22 03:30N 60°06' E 024°58'0 0.0
2017-Jun-22 03:00N 60°06' E 024°58'4 8.3
2017-Jun-22 02:31N 60°02' E 024°58'510.5
2017-Jun-22 02:01N 60°03' E 025°08'611.5
2017-Jun-22 01:30N 60°06' E 024°58'0 0.0
2017-Jun-22 01:00N 60°06' E 024°58'0 0.0
2017-Jun-22 00:30N 60°06' E 024°58'0 0.0
2017-Jun-22 00:00N 60°06' E 024°58'0 0.0
2017-Jun-21 23:30N 60°06' E 024°58'0 0.0
2017-Jun-21 23:00N 60°06' E 024°58'0 0.0
2017-Jun-21 22:30N 60°06' E 024°58'0 0.0
2017-Jun-21 22:00N 60°06' E 024°58'0 0.0
2017-Jun-21 21:30N 60°06' E 024°58'0 0.0
2017-Jun-21 21:01N 60°06' E 024°58'5 9.4
2017-Jun-21 20:30N 60°04' E 025°06'5 9.4
2017-Jun-21 20:00N 60°06' E 024°58'0 0.0
2017-Jun-21 19:31N 60°06' E 024°58'0 0.0
2017-Jun-21 19:00N 60°06' E 024°58'0 0.0
2017-Jun-21 18:30N 60°06' E 024°58'611.1
2017-Jun-21 18:00N 60°06' E 025°10'611.1
2017-Jun-21 17:30N 60°06' E 024°58'3 6.9
2017-Jun-21 17:01N 60°03' E 024°56'3 6.9
2017-Jun-21 16:30N 60°06' E 024°58'0 0.0
2017-Jun-21 16:00N 60°06' E 024°58'0 0.0
2017-Jun-21 15:30N 60°06' E 024°58'0 0.0
2017-Jun-21 15:01N 60°06' E 024°58'3 5.3
2017-Jun-21 14:30N 60°05' E 024°54'3 2.7
2017-Jun-21 13:31N 60°06' E 024°58'0 0.3
2017-Jun-21 13:01N 60°06' E 024°58'3 6.8
2017-Jun-21 12:30N 60°07' E 025°05'2 4.2
2017-Jun-21 12:00N 60°07' E 025°01'1 2.5
2017-Jun-21 11:30N 60°07' E 024°59'3 5.8
2017-Jun-21 11:01N 60°09' E 024°60'3 6.3
2017-Jun-21 10:30N 60°06' E 024°58'0 0.0
2017-Jun-21 10:00N 60°06' E 024°58'5 9.1
2017-Jun-21 09:31N 60°04' E 025°07'5 9.0
2017-Jun-21 09:00N 60°06' E 024°58'4 7.8
2017-Jun-21 08:30N 60°10' E 024°58'4 7.7
2017-Jun-21 08:00N 60°06' E 024°58'0 0.1
2017-Jun-21 07:30N 60°06' E 024°58'4 8.8
2017-Jun-21 07:01N 60°02' E 024°57'4 8.7
2017-Jun-21 06:30N 60°06' E 024°58'0 0.0
2017-Jun-21 06:00N 60°06' E 024°58'0 0.0
2017-Jun-21 05:30N 60°06' E 024°58'0 0.0
2017-Jun-21 05:00N 60°06' E 024°58'3 6.3
2017-Jun-21 04:30N 60°03' E 024°58'2 3.3
2017-Jun-21 04:01N 60°05' E 024°58'2 3.0
2017-Jun-21 03:30N 60°06' E 024°58'0 0.5
2017-Jun-21 03:01N 60°06' E 024°59'5 9.7
2017-Jun-21 02:30N 60°01' E 024°58'510.2
2017-Jun-21 02:00N 60°06' E 024°58'3 6.9
2017-Jun-21 01:31N 60°05' E 025°05'3 6.8
2017-Jun-21 01:01N 60°06' E 024°58'0 0.0
2017-Jun-21 00:30N 60°06' E 024°58'0 0.0
2017-Jun-21 00:01N 60°06' E 024°58'0 0.0
2017-Jun-20 23:30N 60°06' E 024°58'0 0.0
2017-Jun-20 23:00N 60°06' E 024°58'0 0.0
2017-Jun-20 22:31N 60°06' E 024°58'0 0.0
2017-Jun-20 22:00N 60°06' E 024°58'0 0.0
2017-Jun-20 21:30N 60°06' E 024°58'0 0.0
2017-Jun-20 21:00N 60°06' E 024°58'0 0.0
2017-Jun-20 20:30N 60°06' E 024°58'0 0.0
2017-Jun-20 20:00N 60°06' E 024°58'0 0.0
2017-Jun-20 19:30N 60°06' E 024°58'0 0.0
2017-Jun-20 19:00N 60°06' E 024°58'0 0.0
2017-Jun-20 18:30N 60°06' E 024°58'0 0.0
2017-Jun-20 18:00N 60°06' E 024°58'0 0.0
2017-Jun-20 17:30N 60°06' E 024°58'0 0.0
2017-Jun-20 17:00N 60°06' E 024°58'0 0.0
2017-Jun-20 16:30N 60°06' E 024°58'0 0.2
2017-Jun-20 16:01N 60°06' E 024°59'4 7.9
2017-Jun-20 15:31N 60°03' E 024°54'4 7.7
2017-Jun-20 15:00N 60°06' E 024°58'0 0.0
2017-Jun-20 14:00N 60°06' E 024°58'0 0.0
2017-Jun-20 13:30N 60°06' E 024°58'0 0.0
2017-Jun-20 13:00N 60°06' E 024°58'0 0.0
2017-Jun-20 12:30N 60°06' E 024°58'0 0.0
2017-Jun-20 12:00N 60°06' E 024°58'0 0.0
2017-Jun-20 11:30N 60°06' E 024°58'0 0.0
2017-Jun-20 11:00N 60°06' E 024°58'2 3.3
2017-Jun-20 10:30N 60°07' E 025°02'2 3.4
2017-Jun-20 10:01N 60°07' E 025°05'3 6.6
2017-Jun-20 09:30N 60°06' E 024°58'0 0.0
2017-Jun-20 09:00N 60°06' E 024°58'0 0.0
2017-Jun-20 08:30N 60°06' E 024°58'0 0.0
2017-Jun-20 08:00N 60°06' E 024°58'0 0.0
2017-Jun-20 07:30N 60°06' E 024°58'0 0.0
2017-Jun-20 07:00N 60°06' E 024°58'0 0.0
2017-Jun-20 06:30N 60°06' E 024°58'4 7.2
2017-Jun-20 06:00N 60°10' E 024°59'4 7.2
2017-Jun-20 05:30N 60°06' E 024°58'0 0.0
2017-Jun-20 05:00N 60°06' E 024°58'0 0.0
2017-Jun-20 04:30N 60°06' E 024°58'0 0.0
2017-Jun-20 04:00N 60°06' E 024°58'0 0.0
2017-Jun-20 03:31N 60°06' E 024°58'0 0.0
2017-Jun-20 03:00N 60°06' E 024°58'0 0.0
2017-Jun-20 02:30N 60°06' E 024°58'0 0.0
2017-Jun-20 02:00N 60°06' E 024°58'0 0.0
2017-Jun-20 01:31N 60°06' E 024°58'0 0.0
2017-Jun-20 01:00N 60°06' E 024°58'0 0.0
2017-Jun-20 00:30N 60°06' E 024°58'0 0.0
2017-Jun-20 00:00N 60°06' E 024°58'0 0.0
2017-Jun-19 23:30N 60°06' E 024°58'0 0.0
2017-Jun-19 23:00N 60°06' E 024°58'0 0.0
2017-Jun-19 22:30N 60°06' E 024°58'0 0.0
2017-Jun-19 22:00N 60°06' E 024°58'0 0.0
2017-Jun-19 21:30N 60°06' E 024°58'4 8.7
2017-Jun-19 21:01N 60°03' E 024°54'4 8.7
2017-Jun-19 20:31N 60°06' E 024°58'0 0.0
2017-Jun-19 20:00N 60°06' E 024°58'0 0.0
2017-Jun-19 19:30N 60°06' E 024°58'0 0.0
2017-Jun-19 19:00N 60°06' E 024°58'4 7.6
2017-Jun-19 18:30N 60°06' E 025°06'4 7.5
2017-Jun-19 18:01N 60°06' E 024°59'0 0.1
2017-Jun-19 17:30N 60°06' E 024°58'2 4.1
2017-Jun-19 17:00N 60°05' E 025°02'2 3.7
2017-Jun-19 16:30N 60°06' E 024°59'1 1.9
2017-Jun-19 16:01N 60°05' E 024°58'0 0.8
2017-Jun-19 15:30N 60°06' E 024°58'1 1.3
2017-Jun-19 15:00N 60°06' E 024°58'1 2.4
2017-Jun-19 14:30N 60°05' E 024°58'1 1.2
2017-Jun-19 13:30N 60°06' E 024°58'0 0.1
2017-Jun-19 13:01N 60°06' E 024°58'0 0.0
2017-Jun-19 12:30N 60°06' E 024°58'0 0.0
2017-Jun-19 12:00N 60°06' E 024°58'0 0.0
2017-Jun-19 11:30N 60°06' E 024°58'0 0.0
2017-Jun-19 11:00N 60°06' E 024°58'0 0.0
2017-Jun-19 10:31N 60°06' E 024°58'0 0.0
2017-Jun-19 10:00N 60°06' E 024°58'0 0.0
2017-Jun-19 09:30N 60°06' E 024°58'0 0.0
2017-Jun-19 09:00N 60°06' E 024°58'0 0.0
2017-Jun-19 08:30N 60°06' E 024°58'4 7.9
2017-Jun-19 08:01N 60°10' E 024°58'0 0.2
2017-Jun-19 07:30N 60°10' E 024°58'3 6.0
2017-Jun-19 07:00N 60°07' E 024°59'4 8.1
2017-Jun-19 06:31N 60°03' E 024°57'3 6.1
2017-Jun-19 06:00N 60°06' E 024°58'0 0.0
2017-Jun-19 05:31N 60°06' E 024°58'1 1.6
2017-Jun-19 05:01N 60°05' E 024°59'1 1.6
2017-Jun-19 04:30N 60°06' E 024°58'612.2
2017-Jun-19 04:00N 60°09' E 025°10'2 3.3
2017-Jun-19 03:30N 60°10' E 025°12'918.1
2017-Jun-19 03:01N 60°04' E 024°58'714.2
2017-Jun-19 02:31N 59°57' E 025°01'816.8
2017-Jun-19 02:01N 60°06' E 025°01'1 2.8
2017-Jun-19 01:31N 60°06' E 024°58'0 0.0
2017-Jun-19 01:00N 60°06' E 024°58'0 0.0
2017-Jun-19 00:31N 60°06' E 024°58'0 0.0
2017-Jun-19 00:01N 60°06' E 024°58'0 0.0
2017-Jun-18 23:30N 60°06' E 024°58'0 0.0
2017-Jun-18 23:01N 60°06' E 024°58'0 0.0
2017-Jun-18 22:31N 60°06' E 024°58'0 0.0
2017-Jun-18 22:00N 60°06' E 024°58'0 0.0
2017-Jun-18 21:31N 60°06' E 024°58'0 0.0
2017-Jun-18 21:00N 60°06' E 024°58'0 0.0
2017-Jun-18 20:31N 60°06' E 024°58'0 0.0
2017-Jun-18 20:01N 60°06' E 024°58'0 0.0
2017-Jun-18 19:31N 60°06' E 024°58'0 0.0
2017-Jun-18 19:01N 60°06' E 024°58'0 0.0
2017-Jun-18 18:30N 60°06' E 024°58'1 1.3
2017-Jun-18 18:00N 60°06' E 024°58'2 3.8
2017-Jun-18 17:31N 60°04' E 024°57'612.7
2017-Jun-18 17:01N 60°10' E 024°59'4 7.3
2017-Jun-18 16:31N 60°07' E 024°58'4 7.2
2017-Jun-18 16:00N 60°10' E 024°58'4 7.8
2017-Jun-18 15:31N 60°06' E 024°58'5 9.8
2017-Jun-18 15:01N 60°02' E 024°55'5 4.9
2017-Jun-18 14:00N 60°06' E 024°58'0 0.0
2017-Jun-18 13:30N 60°06' E 024°58'0 0.0
2017-Jun-18 13:00N 60°06' E 024°58'0 0.0
2017-Jun-18 12:30N 60°06' E 024°58'0 0.0
2017-Jun-18 12:00N 60°06' E 024°58'0 0.0
2017-Jun-18 11:30N 60°06' E 024°58'0 0.0
2017-Jun-18 11:01N 60°06' E 024°58'0 0.0
2017-Jun-18 10:30N 60°06' E 024°58'0 0.0
2017-Jun-18 10:00N 60°06' E 024°58'510.9
2017-Jun-18 09:31N 60°01' E 024°57'510.8
2017-Jun-18 09:00N 60°06' E 024°58'0 0.0
2017-Jun-18 08:30N 60°06' E 024°58'0 0.0
2017-Jun-18 08:00N 60°06' E 024°58'0 0.0
2017-Jun-18 07:30N 60°06' E 024°58'4 8.5
2017-Jun-18 07:01N 60°06' E 025°07'4 8.5
2017-Jun-18 06:31N 60°06' E 024°58'1 1.6
2017-Jun-18 06:00N 60°06' E 024°59'1 1.6
2017-Jun-18 05:30N 60°05' E 024°58'2 3.2
2017-Jun-18 05:00N 60°06' E 024°58'0 0.0
2017-Jun-18 04:30N 60°06' E 024°58'4 9.0
2017-Jun-18 04:01N 60°02' E 024°57'4 7.6
2017-Jun-18 03:30N 60°06' E 024°59'0 0.8
2017-Jun-18 03:00N 60°05' E 024°59'1 2.2
2017-Jun-18 02:30N 60°06' E 024°58'0 0.0
2017-Jun-18 02:00N 60°06' E 024°58'0 0.0
2017-Jun-18 01:30N 60°06' E 024°58'0 0.0
2017-Jun-18 01:00N 60°06' E 024°58'0 0.0
2017-Jun-18 00:30N 60°06' E 024°58'0 0.0
2017-Jun-18 00:00N 60°06' E 024°58'0 0.0
2017-Jun-17 23:30N 60°06' E 024°58'0 0.0
2017-Jun-17 23:00N 60°06' E 024°58'0 0.0
2017-Jun-17 22:30N 60°06' E 024°58'0 0.0
2017-Jun-17 22:00N 60°06' E 024°58'0 0.0
2017-Jun-17 21:31N 60°06' E 024°58'0 0.1
2017-Jun-17 21:01N 60°06' E 024°58'611.5
2017-Jun-17 20:31N 60°06' E 025°10'611.4
2017-Jun-17 20:00N 60°06' E 024°58'0 0.0
2017-Jun-17 19:30N 60°06' E 024°58'0 0.0
2017-Jun-17 19:01N 60°06' E 024°58'0 0.0
2017-Jun-17 18:31N 60°06' E 024°58'0 0.0
2017-Jun-17 18:01N 60°06' E 024°58'0 0.0
2017-Jun-17 17:31N 60°06' E 024°58'0 0.0
2017-Jun-17 17:01N 60°06' E 024°58'0 0.0
2017-Jun-17 16:31N 60°06' E 024°58'3 6.8
2017-Jun-17 16:00N 60°03' E 024°57'3 5.1
2017-Jun-17 15:30N 60°05' E 024°58'1 1.8
2017-Jun-17 15:00N 60°06' E 024°58'0 0.0
2017-Jun-17 14:30N 60°06' E 024°58'0 0.0
2017-Jun-17 13:30N 60°06' E 024°58'0 0.0
2017-Jun-17 13:00N 60°06' E 024°58'0 0.0
2017-Jun-17 12:30N 60°06' E 024°58'0 0.0
2017-Jun-17 12:00N 60°06' E 024°58'0 0.0
2017-Jun-17 11:30N 60°06' E 024°58'0 0.0
2017-Jun-17 11:00N 60°06' E 024°58'0 0.0
2017-Jun-17 10:30N 60°06' E 024°58'0 0.0
2017-Jun-17 10:00N 60°06' E 024°58'0 0.0
2017-Jun-17 09:30N 60°06' E 024°58'0 0.0
2017-Jun-17 09:00N 60°06' E 024°58'4 7.8
2017-Jun-17 08:30N 60°10' E 024°58'0 0.0
2017-Jun-17 08:00N 60°10' E 024°58'3 5.0
2017-Jun-17 07:31N 60°08' E 024°59'611.9
2017-Jun-17 07:01N 60°02' E 024°58'4 8.9
2017-Jun-17 06:31N 60°06' E 024°58'0 0.0
2017-Jun-17 06:01N 60°06' E 024°58'0 0.0
2017-Jun-17 05:31N 60°06' E 024°58'3 6.7
2017-Jun-17 05:00N 60°09' E 024°55'1 2.2
2017-Jun-17 04:31N 60°09' E 024°57'3 5.1
2017-Jun-17 04:01N 60°06' E 024°59'5 9.1
2017-Jun-17 03:31N 60°02' E 024°58'5 9.4
2017-Jun-17 03:01N 60°06' E 024°58'0 0.0
2017-Jun-17 02:30N 60°06' E 024°58'0 0.0
2017-Jun-17 02:00N 60°06' E 024°58'0 0.0
2017-Jun-17 01:31N 60°06' E 024°58'0 0.0
2017-Jun-17 01:00N 60°06' E 024°58'0 0.0
2017-Jun-17 00:30N 60°06' E 024°58'0 0.0
2017-Jun-17 00:00N 60°06' E 024°58'611.8
2017-Jun-16 23:31N 60°04' E 025°10'611.8
2017-Jun-16 23:00N 60°06' E 024°58'0 0.0
2017-Jun-16 22:30N 60°06' E 024°58'0 0.0
2017-Jun-16 22:00N 60°06' E 024°58'0 0.0
2017-Jun-16 21:30N 60°06' E 024°58'0 0.0
2017-Jun-16 21:00N 60°06' E 024°58'0 0.0
2017-Jun-16 20:30N 60°06' E 024°58'0 0.0
2017-Jun-16 20:00N 60°06' E 024°58'0 0.0
2017-Jun-16 19:30N 60°06' E 024°58'0 0.0
2017-Jun-16 19:00N 60°06' E 024°58'0 0.0
2017-Jun-16 18:30N 60°06' E 024°58'0 0.0
2017-Jun-16 18:00N 60°06' E 024°58'0 0.0
2017-Jun-16 17:30N 60°06' E 024°58'0 0.0
2017-Jun-16 17:01N 60°06' E 024°58'612.6
2017-Jun-16 16:30N 60°05' E 025°11'1 1.2
2017-Jun-16 16:00N 60°05' E 025°10'815.3
2017-Jun-16 15:31N 60°13' E 025°12'816.6
2017-Jun-16 15:00N 60°07' E 025°01'5 9.5
2017-Jun-16 14:31N 60°03' E 024°55'4 3.9
2017-Jun-16 13:30N 60°06' E 024°58'0 0.0
2017-Jun-16 13:01N 60°06' E 024°58'611.9
2017-Jun-16 12:31N 60°06' E 025°10'2 3.9
2017-Jun-16 12:00N 60°06' E 025°07'4 8.1
2017-Jun-16 11:31N 60°06' E 024°58'0 0.1
2017-Jun-16 11:01N 60°06' E 024°58'0 0.0
2017-Jun-16 10:31N 60°06' E 024°58'0 0.0
2017-Jun-16 10:00N 60°06' E 024°58'0 0.0
2017-Jun-16 09:31N 60°06' E 024°58'0 0.0
2017-Jun-16 09:00N 60°06' E 024°58'0 0.0
2017-Jun-16 08:31N 60°06' E 024°58'0 0.0
2017-Jun-16 08:00N 60°06' E 024°58'0 0.0
2017-Jun-16 07:31N 60°06' E 024°58'0 0.0
2017-Jun-16 07:01N 60°06' E 024°58'0 0.0
2017-Jun-16 06:31N 60°06' E 024°58'0 0.0
2017-Jun-16 06:01N 60°06' E 024°58'0 0.0
2017-Jun-16 05:30N 60°06' E 024°58'0 0.0
2017-Jun-16 05:01N 60°06' E 024°58'0 0.0
2017-Jun-16 04:30N 60°06' E 024°58'4 7.8
2017-Jun-16 04:01N 60°10' E 024°59'1 1.2
2017-Jun-16 03:30N 60°10' E 024°59'1019.6
2017-Jun-16 03:00N 59°60' E 024°58'612.8
2017-Jun-16 02:30N 60°06' E 024°58'0 0.0
2017-Jun-16 02:01N 60°06' E 024°58'5 9.9
2017-Jun-16 01:31N 60°06' E 025°08'5 9.9
2017-Jun-16 01:00N 60°06' E 024°58'0 0.0
2017-Jun-16 00:30N 60°06' E 024°58'0 0.0
2017-Jun-16 00:00N 60°06' E 024°58'0 0.0
2017-Jun-15 23:30N 60°06' E 024°58'0 0.0
2017-Jun-15 23:00N 60°06' E 024°58'0 0.0
2017-Jun-15 22:30N 60°06' E 024°58'0 0.0
2017-Jun-15 22:00N 60°06' E 024°58'0 0.0
2017-Jun-15 21:30N 60°06' E 024°58'0 0.0
2017-Jun-15 21:00N 60°06' E 024°58'0 0.0
2017-Jun-15 20:30N 60°06' E 024°58'0 0.0
2017-Jun-15 20:00N 60°06' E 024°58'0 0.0
2017-Jun-15 19:30N 60°06' E 024°58'0 0.0
2017-Jun-15 19:00N 60°06' E 024°58'0 0.0
2017-Jun-15 18:30N 60°06' E 024°58'0 0.0
2017-Jun-15 18:00N 60°06' E 024°58'0 0.0
2017-Jun-15 17:30N 60°06' E 024°58'2 4.5
2017-Jun-15 17:00N 60°08' E 024°57'2 4.4
2017-Jun-15 16:30N 60°06' E 024°58'0 0.0
2017-Jun-15 16:01N 60°06' E 024°58'0 0.1
2017-Jun-15 15:31N 60°06' E 024°59'0 0.1
2017-Jun-15 15:00N 60°06' E 024°58'0 0.0
2017-Jun-15 14:30N 60°06' E 024°58'0 0.0
2017-Jun-15 13:30N 60°06' E 024°58'0 0.0
2017-Jun-15 13:00N 60°06' E 024°58'0 0.0
2017-Jun-15 12:30N 60°06' E 024°58'0 0.0
2017-Jun-15 12:00N 60°06' E 024°58'0 0.0
2017-Jun-15 11:30N 60°06' E 024°58'0 0.0
2017-Jun-15 11:01N 60°06' E 024°58'0 0.0
2017-Jun-15 10:30N 60°06' E 024°58'0 0.0
2017-Jun-15 10:00N 60°06' E 024°58'611.3
2017-Jun-15 09:29N 60°01' E 025°05'  

Dump ship's entire track history